sensor_id;sensor_type;location;lat;lon;timestamp;temperature;humidity
15184;DHT22;7693;49.266;7.104;2024-01-11T06:26:03;-4.50;99.90
15184;DHT22;7693;49.266;7.104;2024-01-11T06:28:29;-4.50;99.90
15184;DHT22;7693;49.266;7.104;2024-01-11T06:30:55;-4.50;99.90
15184;DHT22;7693;49.266;7.104;2024-01-11T06:33:21;-4.50;99.90
15184;DHT22;7693;49.266;7.104;2024-01-11T06:35:46;-4.50;99.90
15184;DHT22;7693;49.266;7.104;2024-01-11T06:38:12;-4.40;99.90
15184;DHT22;7693;49.266;7.104;2024-01-11T06:40:38;-4.40;99.90
15184;DHT22;7693;49.266;7.104;2024-01-11T06:43:03;-4.40;99.90
15184;DHT22;7693;49.266;7.104;2024-01-11T06:45:29;-4.40;99.90
15184;DHT22;7693;49.266;7.104;2024-01-11T06:47:54;-4.40;99.90
15184;DHT22;7693;49.266;7.104;2024-01-11T06:50:20;-4.40;99.90
15184;DHT22;7693;49.266;7.104;2024-01-11T06:52:46;-4.40;99.90
15184;DHT22;7693;49.266;7.104;2024-01-11T06:55:11;-4.40;99.90
15184;DHT22;7693;49.266;7.104;2024-01-11T06:57:37;-4.40;99.90
15184;DHT22;7693;49.266;7.104;2024-01-11T07:00:03;-4.30;99.90
15184;DHT22;7693;49.266;7.104;2024-01-11T07:02:29;-4.30;99.90
15184;DHT22;7693;49.266;7.104;2024-01-11T07:04:55;-4.30;99.90
15184;DHT22;7693;49.266;7.104;2024-01-11T07:07:20;-4.30;99.90
15184;DHT22;7693;49.266;7.104;2024-01-11T07:09:46;-4.30;99.90
15184;DHT22;7693;49.266;7.104;2024-01-11T07:12:12;-4.30;99.90
15184;DHT22;7693;49.266;7.104;2024-01-11T07:14:37;-4.30;99.90
15184;DHT22;7693;49.266;7.104;2024-01-11T07:17:03;-4.30;99.90
15184;DHT22;7693;49.266;7.104;2024-01-11T07:19:29;-4.30;99.90
15184;DHT22;7693;49.266;7.104;2024-01-11T07:21:55;-4.30;99.90
15184;DHT22;7693;49.266;7.104;2024-01-11T07:24:23;-4.30;99.90
15184;DHT22;7693;49.266;7.104;2024-01-11T07:26:50;-4.30;99.90
15184;DHT22;7693;49.266;7.104;2024-01-11T07:29:16;-4.30;99.90
15184;DHT22;7693;49.266;7.104;2024-01-11T07:31:41;-4.30;99.90
15184;DHT22;7693;49.266;7.104;2024-01-11T07:34:07;-4.30;99.90
15184;DHT22;7693;49.266;7.104;2024-01-11T07:36:33;-4.30;99.90
15184;DHT22;7693;49.266;7.104;2024-01-11T07:38:58;-4.30;99.90
15184;DHT22;7693;49.266;7.104;2024-01-11T07:41:24;-4.20;99.90
15184;DHT22;7693;49.266;7.104;2024-01-11T07:43:49;-4.20;99.90
15184;DHT22;7693;49.266;7.104;2024-01-11T07:46:15;-4.10;99.90
15184;DHT22;7693;49.266;7.104;2024-01-11T07:48:41;-4.10;99.90
15184;DHT22;7693;49.266;7.104;2024-01-11T07:51:07;-4.00;99.90
15184;DHT22;7693;49.266;7.104;2024-01-11T07:53:33;-4.00;99.90
15184;DHT22;7693;49.266;7.104;2024-01-11T07:55:58;-4.00;99.90
15184;DHT22;7693;49.266;7.104;2024-01-11T07:58:24;-4.00;99.90
15184;DHT22;7693;49.266;7.104;2024-01-11T08:00:49;-4.00;99.90
15184;DHT22;7693;49.266;7.104;2024-01-11T08:03:15;-4.00;99.90
15184;DHT22;7693;49.266;7.104;2024-01-11T08:05:41;-4.10;99.90
15184;DHT22;7693;49.266;7.104;2024-01-11T08:08:08;-4.10;99.90
15184;DHT22;7693;49.266;7.104;2024-01-11T08:10:34;-4.10;99.90
15184;DHT22;7693;49.266;7.104;2024-01-11T08:13:00;-4.10;99.90
15184;DHT22;7693;49.266;7.104;2024-01-11T08:15:26;-4.10;99.90
15184;DHT22;7693;49.266;7.104;2024-01-11T08:17:51;-4.10;99.90
15184;DHT22;7693;49.266;7.104;2024-01-11T08:20:17;-4.00;99.90
15184;DHT22;7693;49.266;7.104;2024-01-11T08:22:43;-4.00;99.90
15184;DHT22;7693;49.266;7.104;2024-01-11T08:25:09;-3.90;99.90
15184;DHT22;7693;49.266;7.104;2024-01-11T08:28:11;-3.80;99.90
15184;DHT22;7693;49.266;7.104;2024-01-11T08:30:37;-3.80;99.90
15184;DHT22;7693;49.266;7.104;2024-01-11T08:33:03;-3.70;99.90
15184;DHT22;7693;49.266;7.104;2024-01-11T08:35:29;-3.60;99.90
15184;DHT22;7693;49.266;7.104;2024-01-11T08:37:57;-3.60;99.90
15184;DHT22;7693;49.266;7.104;2024-01-11T08:40:23;-3.60;99.90
15184;DHT22;7693;49.266;7.104;2024-01-11T08:42:48;-3.60;99.90
15184;DHT22;7693;49.266;7.104;2024-01-11T08:45:14;-3.50;99.90
15184;DHT22;7693;49.266;7.104;2024-01-11T08:47:44;-3.50;99.90
15184;DHT22;7693;49.266;7.104;2024-01-11T08:50:13;-3.50;99.90
15184;DHT22;7693;49.266;7.104;2024-01-11T08:52:38;-3.40;99.90
15184;DHT22;7693;49.266;7.104;2024-01-11T08:55:05;-3.30;99.90
15184;DHT22;7693;49.266;7.104;2024-01-11T08:57:31;-3.20;99.90
15184;DHT22;7693;49.266;7.104;2024-01-11T08:59:56;-3.10;99.90
15184;DHT22;7693;49.266;7.104;2024-01-11T09:02:22;-3.00;99.90
15184;DHT22;7693;49.266;7.104;2024-01-11T09:04:48;-2.90;99.90
15184;DHT22;7693;49.266;7.104;2024-01-11T09:07:14;-2.80;99.90
15184;DHT22;7693;49.266;7.104;2024-01-11T09:09:41;-2.70;99.90
15184;DHT22;7693;49.266;7.104;2024-01-11T09:12:06;-2.60;99.90
15184;DHT22;7693;49.266;7.104;2024-01-11T09:14:32;-2.50;99.90
15184;DHT22;7693;49.266;7.104;2024-01-11T09:16:58;-2.50;99.90
15184;DHT22;7693;49.266;7.104;2024-01-11T09:19:24;-2.40;99.90
15184;DHT22;7693;49.266;7.104;2024-01-11T09:21:49;-2.30;99.90
15184;DHT22;7693;49.266;7.104;2024-01-11T09:24:15;-2.20;99.90
15184;DHT22;7693;49.266;7.104;2024-01-11T09:26:41;-2.20;99.90
15184;DHT22;7693;49.266;7.104;2024-01-11T09:29:07;-2.10;99.90
15184;DHT22;7693;49.266;7.104;2024-01-11T09:31:32;-2.00;99.90
15184;DHT22;7693;49.266;7.104;2024-01-11T09:33:58;-2.00;99.90
15184;DHT22;7693;49.266;7.104;2024-01-11T09:36:23;-1.90;99.90
15184;DHT22;7693;49.266;7.104;2024-01-11T09:38:49;-1.90;99.90
15184;DHT22;7693;49.266;7.104;2024-01-11T09:41:15;-1.80;99.90
15184;DHT22;7693;49.266;7.104;2024-01-11T09:43:41;-1.70;99.90
15184;DHT22;7693;49.266;7.104;2024-01-11T09:46:09;-1.70;99.90
15184;DHT22;7693;49.266;7.104;2024-01-11T09:48:38;-1.60;99.90
15184;DHT22;7693;49.266;7.104;2024-01-11T09:51:08;-1.50;99.90
15184;DHT22;7693;49.266;7.104;2024-01-11T09:53:38;-1.50;99.90
15184;DHT22;7693;49.266;7.104;2024-01-11T09:56:08;-1.40;99.90
15184;DHT22;7693;49.266;7.104;2024-01-11T09:58:35;-1.40;99.90
15184;DHT22;7693;49.266;7.104;2024-01-11T10:01:02;-1.40;99.90
15184;DHT22;7693;49.266;7.104;2024-01-11T10:03:28;-1.30;99.90
15184;DHT22;7693;49.266;7.104;2024-01-11T10:05:57;-1.20;99.90
15184;DHT22;7693;49.266;7.104;2024-01-11T10:08:23;-1.10;99.90
15184;DHT22;7693;49.266;7.104;2024-01-11T10:10:49;-1.10;99.90
15184;DHT22;7693;49.266;7.104;2024-01-11T10:13:18;-1.00;99.90
15184;DHT22;7693;49.266;7.104;2024-01-11T10:15:43;-0.90;99.90
15184;DHT22;7693;49.266;7.104;2024-01-11T10:18:09;-0.90;99.90
15184;DHT22;7693;49.266;7.104;2024-01-11T10:20:37;-0.80;99.90
15184;DHT22;7693;49.266;7.104;2024-01-11T10:23:03;-0.80;99.90
15184;DHT22;7693;49.266;7.104;2024-01-11T10:25:28;-0.70;99.90
15184;DHT22;7693;49.266;7.104;2024-01-11T10:27:54;-0.60;99.90
15184;DHT22;7693;49.266;7.104;2024-01-11T10:30:20;-0.60;99.90
15184;DHT22;7693;49.266;7.104;2024-01-11T10:32:48;-0.50;99.90
15184;DHT22;7693;49.266;7.104;2024-01-11T10:35:14;-0.40;99.90
15184;DHT22;7693;49.266;7.104;2024-01-11T10:37:41;-0.40;99.90
15184;DHT22;7693;49.266;7.104;2024-01-11T10:40:08;-0.30;99.90
15184;DHT22;7693;49.266;7.104;2024-01-11T10:42:44;-0.30;99.90
15184;DHT22;7693;49.266;7.104;2024-01-11T10:45:20;-0.30;99.90
15184;DHT22;7693;49.266;7.104;2024-01-11T10:47:56;-0.20;99.90
15184;DHT22;7693;49.266;7.104;2024-01-11T10:50:25;-0.10;99.90
15184;DHT22;7693;49.266;7.104;2024-01-11T10:55:31;-0.10;99.90
15184;DHT22;7693;49.266;7.104;2024-01-11T13:24:52;1.80;99.90
15184;DHT22;7693;49.266;7.104;2024-01-11T13:27:18;1.80;99.90
15184;DHT22;7693;49.266;7.104;2024-01-11T13:29:44;1.80;99.90
15184;DHT22;7693;49.266;7.104;2024-01-11T13:32:09;1.90;99.90
15184;DHT22;7693;49.266;7.104;2024-01-11T13:34:36;1.90;99.90
15184;DHT22;7693;49.266;7.104;2024-01-11T13:37:02;2.00;99.90
15184;DHT22;7693;49.266;7.104;2024-01-11T13:39:28;2.00;99.90
15184;DHT22;7693;49.266;7.104;2024-01-11T13:41:54;2.10;99.90
15184;DHT22;7693;49.266;7.104;2024-01-11T13:44:19;2.10;99.90
15184;DHT22;7693;49.266;7.104;2024-01-11T13:46:45;2.10;99.90
15184;DHT22;7693;49.266;7.104;2024-01-11T13:49:11;2.20;99.90
15184;DHT22;7693;49.266;7.104;2024-01-11T13:51:37;2.20;99.90
15184;DHT22;7693;49.266;7.104;2024-01-11T13:54:03;2.20;99.90
15184;DHT22;7693;49.266;7.104;2024-01-11T13:56:29;2.30;99.90
15184;DHT22;7693;49.266;7.104;2024-01-11T13:58:55;2.30;99.90
15184;DHT22;7693;49.266;7.104;2024-01-11T14:01:20;2.30;99.90
15184;DHT22;7693;49.266;7.104;2024-01-11T14:03:47;2.30;99.90
15184;DHT22;7693;49.266;7.104;2024-01-11T14:06:12;2.30;99.90
15184;DHT22;7693;49.266;7.104;2024-01-11T14:08:38;2.30;99.90
15184;DHT22;7693;49.266;7.104;2024-01-11T14:11:04;2.30;99.90
15184;DHT22;7693;49.266;7.104;2024-01-11T14:13:30;2.40;99.90
15184;DHT22;7693;49.266;7.104;2024-01-11T14:15:55;2.40;99.90
15184;DHT22;7693;49.266;7.104;2024-01-11T14:18:22;2.30;99.90
15184;DHT22;7693;49.266;7.104;2024-01-11T14:20:48;2.30;99.90
15184;DHT22;7693;49.266;7.104;2024-01-11T14:23:14;2.30;99.90
15184;DHT22;7693;49.266;7.104;2024-01-11T14:25:40;2.30;99.90
15184;DHT22;7693;49.266;7.104;2024-01-11T14:28:06;2.30;99.90
15184;DHT22;7693;49.266;7.104;2024-01-11T14:30:31;2.30;99.90
15184;DHT22;7693;49.266;7.104;2024-01-11T14:32:58;2.30;99.90
15184;DHT22;7693;49.266;7.104;2024-01-11T14:35:24;2.30;99.90
15184;DHT22;7693;49.266;7.104;2024-01-11T14:37:50;2.30;99.90
15184;DHT22;7693;49.266;7.104;2024-01-11T14:40:18;2.30;99.90
15184;DHT22;7693;49.266;7.104;2024-01-11T14:42:44;2.30;99.90
15184;DHT22;7693;49.266;7.104;2024-01-11T14:45:09;2.30;99.90
15184;DHT22;7693;49.266;7.104;2024-01-11T14:47:35;2.20;99.90
15184;DHT22;7693;49.266;7.104;2024-01-11T14:50:01;2.20;99.90
15184;DHT22;7693;49.266;7.104;2024-01-11T14:52:29;2.20;99.90
15184;DHT22;7693;49.266;7.104;2024-01-11T14:54:56;2.10;99.90
15184;DHT22;7693;49.266;7.104;2024-01-11T14:57:22;2.10;99.90
15184;DHT22;7693;49.266;7.104;2024-01-11T14:59:47;2.10;99.90
15184;DHT22;7693;49.266;7.104;2024-01-11T15:02:13;2.10;99.90
15184;DHT22;7693;49.266;7.104;2024-01-11T15:04:38;2.00;99.90
15184;DHT22;7693;49.266;7.104;2024-01-11T15:07:04;2.00;99.90
15184;DHT22;7693;49.266;7.104;2024-01-11T15:09:30;2.00;99.90
15184;DHT22;7693;49.266;7.104;2024-01-11T15:11:56;1.90;99.90
15184;DHT22;7693;49.266;7.104;2024-01-11T15:14:21;1.90;99.90
15184;DHT22;7693;49.266;7.104;2024-01-11T15:16:47;1.90;99.90
15184;DHT22;7693;49.266;7.104;2024-01-11T15:19:13;1.90;99.90
15184;DHT22;7693;49.266;7.104;2024-01-11T15:21:39;1.80;99.90
15184;DHT22;7693;49.266;7.104;2024-01-11T15:24:06;1.80;99.90
15184;DHT22;7693;49.266;7.104;2024-01-11T15:26:32;1.80;99.90
15184;DHT22;7693;49.266;7.104;2024-01-11T15:28:58;1.70;99.90
15184;DHT22;7693;49.266;7.104;2024-01-11T15:31:23;1.80;99.90
15184;DHT22;7693;49.266;7.104;2024-01-11T15:33:51;1.70;99.90
15184;DHT22;7693;49.266;7.104;2024-01-11T15:36:17;1.70;99.90
15184;DHT22;7693;49.266;7.104;2024-01-11T15:38:42;1.70;99.90
15184;DHT22;7693;49.266;7.104;2024-01-11T15:41:08;1.70;99.90
15184;DHT22;7693;49.266;7.104;2024-01-11T15:43:35;1.60;99.90
15184;DHT22;7693;49.266;7.104;2024-01-11T15:46:01;1.60;99.90
15184;DHT22;7693;49.266;7.104;2024-01-11T15:48:27;1.50;99.90
15184;DHT22;7693;49.266;7.104;2024-01-11T15:50:52;1.50;99.90
15184;DHT22;7693;49.266;7.104;2024-01-11T15:53:21;1.50;99.90
15184;DHT22;7693;49.266;7.104;2024-01-11T15:55:47;1.40;99.90
15184;DHT22;7693;49.266;7.104;2024-01-11T15:58:14;1.40;99.90
15184;DHT22;7693;49.266;7.104;2024-01-11T16:00:40;1.40;99.90
15184;DHT22;7693;49.266;7.104;2024-01-11T16:03:08;1.30;99.90
15184;DHT22;7693;49.266;7.104;2024-01-11T16:05:33;1.30;99.90
15184;DHT22;7693;49.266;7.104;2024-01-11T16:07:59;1.20;99.90
15184;DHT22;7693;49.266;7.104;2024-01-11T16:10:24;1.20;99.90
15184;DHT22;7693;49.266;7.104;2024-01-11T16:12:51;1.10;99.90
15184;DHT22;7693;49.266;7.104;2024-01-11T16:15:16;1.10;99.90
15184;DHT22;7693;49.266;7.104;2024-01-11T16:17:42;1.10;99.90
15184;DHT22;7693;49.266;7.104;2024-01-11T16:20:08;1.00;99.90
15184;DHT22;7693;49.266;7.104;2024-01-11T16:22:35;1.00;99.90
15184;DHT22;7693;49.266;7.104;2024-01-11T16:25:01;0.90;99.90
15184;DHT22;7693;49.266;7.104;2024-01-11T16:27:27;0.90;99.90
15184;DHT22;7693;49.266;7.104;2024-01-11T16:29:52;0.90;99.90
15184;DHT22;7693;49.266;7.104;2024-01-11T16:32:18;0.80;99.90
15184;DHT22;7693;49.266;7.104;2024-01-11T16:34:44;0.80;99.90
15184;DHT22;7693;49.266;7.104;2024-01-11T16:37:09;0.80;99.90
15184;DHT22;7693;49.266;7.104;2024-01-11T16:39:38;0.70;99.90
15184;DHT22;7693;49.266;7.104;2024-01-11T16:42:04;0.70;99.90
15184;DHT22;7693;49.266;7.104;2024-01-11T16:44:30;0.60;99.90
15184;DHT22;7693;49.266;7.104;2024-01-11T16:46:55;0.60;99.90
15184;DHT22;7693;49.266;7.104;2024-01-11T16:49:21;0.60;99.90
15184;DHT22;7693;49.266;7.104;2024-01-11T16:51:48;0.60;99.90
15184;DHT22;7693;49.266;7.104;2024-01-11T16:54:14;0.50;99.90
15184;DHT22;7693;49.266;7.104;2024-01-11T16:56:40;0.50;99.90
15184;DHT22;7693;49.266;7.104;2024-01-11T16:59:06;0.50;99.90
15184;DHT22;7693;49.266;7.104;2024-01-11T17:01:32;0.50;99.90
15184;DHT22;7693;49.266;7.104;2024-01-11T17:03:58;0.40;99.90
15184;DHT22;7693;49.266;7.104;2024-01-11T17:06:25;0.30;99.90
15184;DHT22;7693;49.266;7.104;2024-01-11T17:08:51;0.20;99.90
15184;DHT22;7693;49.266;7.104;2024-01-11T17:11:16;0.10;99.90
15184;DHT22;7693;49.266;7.104;2024-01-11T17:13:43;0.10;99.90
15184;DHT22;7693;49.266;7.104;2024-01-11T17:16:15;0.00;99.90
15184;DHT22;7693;49.266;7.104;2024-01-11T17:18:40;0.00;99.90
15184;DHT22;7693;49.266;7.104;2024-01-11T17:21:06;0.00;99.90
15184;DHT22;7693;49.266;7.104;2024-01-11T17:23:32;-0.10;99.90
15184;DHT22;7693;49.266;7.104;2024-01-11T17:25:58;-0.10;99.90
15184;DHT22;7693;49.266;7.104;2024-01-11T17:28:24;-0.20;99.90
15184;DHT22;7693;49.266;7.104;2024-01-11T17:30:51;-0.20;99.90
15184;DHT22;7693;49.266;7.104;2024-01-11T17:33:16;-0.20;99.90
15184;DHT22;7693;49.266;7.104;2024-01-11T17:35:42;-0.30;99.90
15184;DHT22;7693;49.266;7.104;2024-01-11T17:38:08;-0.30;99.90
15184;DHT22;7693;49.266;7.104;2024-01-11T17:40:34;-0.40;99.90
15184;DHT22;7693;49.266;7.104;2024-01-11T17:43:00;-0.40;99.90
15184;DHT22;7693;49.266;7.104;2024-01-11T17:45:27;-0.40;99.90
15184;DHT22;7693;49.266;7.104;2024-01-11T17:47:53;-0.40;99.90
15184;DHT22;7693;49.266;7.104;2024-01-11T17:50:20;-0.50;99.90
15184;DHT22;7693;49.266;7.104;2024-01-11T17:52:46;-0.50;99.90
15184;DHT22;7693;49.266;7.104;2024-01-11T17:55:12;-0.50;99.90
15184;DHT22;7693;49.266;7.104;2024-01-11T17:57:38;-0.50;99.90
15184;DHT22;7693;49.266;7.104;2024-01-11T18:00:05;-0.50;99.90
15184;DHT22;7693;49.266;7.104;2024-01-11T18:02:31;-0.50;99.90
15184;DHT22;7693;49.266;7.104;2024-01-11T18:04:57;-0.60;99.90
15184;DHT22;7693;49.266;7.104;2024-01-11T18:07:23;-0.50;99.90
15184;DHT22;7693;49.266;7.104;2024-01-11T18:09:51;-0.60;99.90
15184;DHT22;7693;49.266;7.104;2024-01-11T18:12:20;-0.60;99.90
15184;DHT22;7693;49.266;7.104;2024-01-11T18:14:46;-0.70;99.90
15184;DHT22;7693;49.266;7.104;2024-01-11T18:17:11;-0.70;99.90
15184;DHT22;7693;49.266;7.104;2024-01-11T18:19:40;-0.70;99.90
15184;DHT22;7693;49.266;7.104;2024-01-11T18:22:05;-0.80;99.90
15184;DHT22;7693;49.266;7.104;2024-01-11T18:24:34;-0.80;99.90
15184;DHT22;7693;49.266;7.104;2024-01-11T18:26:59;-0.90;99.90
15184;DHT22;7693;49.266;7.104;2024-01-11T18:29:25;-0.80;99.90
15184;DHT22;7693;49.266;7.104;2024-01-11T18:31:51;-0.90;99.90
15184;DHT22;7693;49.266;7.104;2024-01-11T18:34:18;-0.90;99.90
15184;DHT22;7693;49.266;7.104;2024-01-11T18:36:44;-0.90;99.90
15184;DHT22;7693;49.266;7.104;2024-01-11T18:39:14;-1.00;99.90
15184;DHT22;7693;49.266;7.104;2024-01-11T18:41:41;-1.00;99.90
15184;DHT22;7693;49.266;7.104;2024-01-11T18:44:07;-1.00;99.90
15184;DHT22;7693;49.266;7.104;2024-01-11T18:46:39;-1.00;99.90
15184;DHT22;7693;49.266;7.104;2024-01-11T18:49:05;-1.10;99.90
15184;DHT22;7693;49.266;7.104;2024-01-11T18:51:39;-1.10;99.90
15184;DHT22;7693;49.266;7.104;2024-01-11T18:54:05;-1.10;99.90
15184;DHT22;7693;49.266;7.104;2024-01-11T18:56:31;-1.10;99.90
15184;DHT22;7693;49.266;7.104;2024-01-11T18:58:57;-1.10;99.90
15184;DHT22;7693;49.266;7.104;2024-01-11T19:01:23;-1.10;99.90
15184;DHT22;7693;49.266;7.104;2024-01-11T19:03:51;-1.20;99.90
15184;DHT22;7693;49.266;7.104;2024-01-11T19:06:17;-1.20;99.90
15184;DHT22;7693;49.266;7.104;2024-01-11T19:08:43;-1.20;99.90
15184;DHT22;7693;49.266;7.104;2024-01-11T19:11:09;-1.20;99.90
15184;DHT22;7693;49.266;7.104;2024-01-11T19:13:35;-1.30;99.90
15184;DHT22;7693;49.266;7.104;2024-01-11T19:16:01;-1.30;99.90
15184;DHT22;7693;49.266;7.104;2024-01-11T19:18:26;-1.30;99.90
15184;DHT22;7693;49.266;7.104;2024-01-11T19:20:52;-1.30;99.90
15184;DHT22;7693;49.266;7.104;2024-01-11T19:23:22;-1.30;99.90
15184;DHT22;7693;49.266;7.104;2024-01-11T19:25:51;-1.40;99.90
15184;DHT22;7693;49.266;7.104;2024-01-11T19:28:17;-1.40;99.90
15184;DHT22;7693;49.266;7.104;2024-01-11T19:30:43;-1.30;99.90
15184;DHT22;7693;49.266;7.104;2024-01-11T19:33:09;-1.30;99.90
15184;DHT22;7693;49.266;7.104;2024-01-11T19:35:39;-1.30;99.90
15184;DHT22;7693;49.266;7.104;2024-01-11T19:38:05;-1.30;99.90
15184;DHT22;7693;49.266;7.104;2024-01-11T19:40:30;-1.30;99.90
15184;DHT22;7693;49.266;7.104;2024-01-11T19:42:56;-1.30;99.90
15184;DHT22;7693;49.266;7.104;2024-01-11T19:45:21;-1.30;99.90
15184;DHT22;7693;49.266;7.104;2024-01-11T19:47:47;-1.30;99.90
15184;DHT22;7693;49.266;7.104;2024-01-11T19:50:13;-1.40;99.90
15184;DHT22;7693;49.266;7.104;2024-01-11T19:52:39;-1.40;99.90
15184;DHT22;7693;49.266;7.104;2024-01-11T19:55:05;-1.40;99.90
15184;DHT22;7693;49.266;7.104;2024-01-11T19:57:30;-1.50;99.90
15184;DHT22;7693;49.266;7.104;2024-01-11T19:59:59;-1.50;99.90
15184;DHT22;7693;49.266;7.104;2024-01-11T20:02:25;-1.50;99.90
15184;DHT22;7693;49.266;7.104;2024-01-11T20:04:51;-1.60;99.90
15184;DHT22;7693;49.266;7.104;2024-01-11T20:07:17;-1.60;99.90
15184;DHT22;7693;49.266;7.104;2024-01-11T20:09:44;-1.60;99.90
15184;DHT22;7693;49.266;7.104;2024-01-11T20:12:10;-1.60;99.90
15184;DHT22;7693;49.266;7.104;2024-01-11T20:14:36;-1.60;99.90
15184;DHT22;7693;49.266;7.104;2024-01-11T20:17:01;-1.60;99.90
15184;DHT22;7693;49.266;7.104;2024-01-11T20:19:28;-1.70;99.90
15184;DHT22;7693;49.266;7.104;2024-01-11T20:21:53;-1.70;99.90
15184;DHT22;7693;49.266;7.104;2024-01-11T20:24:19;-1.70;99.90
15184;DHT22;7693;49.266;7.104;2024-01-11T20:26:45;-1.70;99.90
15184;DHT22;7693;49.266;7.104;2024-01-11T20:29:11;-1.70;99.90
15184;DHT22;7693;49.266;7.104;2024-01-11T20:31:36;-1.70;99.90
15184;DHT22;7693;49.266;7.104;2024-01-11T20:34:03;-1.70;99.90
15184;DHT22;7693;49.266;7.104;2024-01-11T20:36:28;-1.70;99.90
15184;DHT22;7693;49.266;7.104;2024-01-11T20:38:55;-1.70;99.90
15184;DHT22;7693;49.266;7.104;2024-01-11T20:41:21;-1.70;99.90
15184;DHT22;7693;49.266;7.104;2024-01-11T20:43:46;-1.70;99.90
15184;DHT22;7693;49.266;7.104;2024-01-11T20:46:19;-1.70;99.90
15184;DHT22;7693;49.266;7.104;2024-01-11T20:48:45;-1.70;99.90
15184;DHT22;7693;49.266;7.104;2024-01-11T20:51:11;-1.60;99.90
15184;DHT22;7693;49.266;7.104;2024-01-11T20:53:44;-1.70;99.90
15184;DHT22;7693;49.266;7.104;2024-01-11T20:56:10;-1.70;99.90
15184;DHT22;7693;49.266;7.104;2024-01-11T20:58:35;-1.70;99.90
15184;DHT22;7693;49.266;7.104;2024-01-11T21:01:01;-1.80;99.90
15184;DHT22;7693;49.266;7.104;2024-01-11T21:03:26;-1.80;99.90
15184;DHT22;7693;49.266;7.104;2024-01-11T21:05:52;-1.80;99.90
15184;DHT22;7693;49.266;7.104;2024-01-11T21:08:20;-1.80;99.90
15184;DHT22;7693;49.266;7.104;2024-01-11T21:10:46;-1.80;99.90
15184;DHT22;7693;49.266;7.104;2024-01-11T21:13:11;-1.80;99.90
15184;DHT22;7693;49.266;7.104;2024-01-11T21:15:38;-1.80;99.90
15184;DHT22;7693;49.266;7.104;2024-01-11T21:18:04;-1.80;99.90
15184;DHT22;7693;49.266;7.104;2024-01-11T21:20:29;-1.80;99.90
15184;DHT22;7693;49.266;7.104;2024-01-11T21:22:55;-1.80;99.90
15184;DHT22;7693;49.266;7.104;2024-01-11T21:25:24;-1.80;99.90
15184;DHT22;7693;49.266;7.104;2024-01-11T21:27:50;-1.80;99.90
15184;DHT22;7693;49.266;7.104;2024-01-11T21:30:16;-1.80;99.90
15184;DHT22;7693;49.266;7.104;2024-01-11T21:32:41;-1.80;99.90
15184;DHT22;7693;49.266;7.104;2024-01-11T21:35:07;-1.90;99.90
15184;DHT22;7693;49.266;7.104;2024-01-11T21:37:33;-1.90;99.90
15184;DHT22;7693;49.266;7.104;2024-01-11T21:39:58;-1.90;99.90
15184;DHT22;7693;49.266;7.104;2024-01-11T21:42:24;-1.90;99.90
15184;DHT22;7693;49.266;7.104;2024-01-11T21:44:51;-1.90;99.90
15184;DHT22;7693;49.266;7.104;2024-01-11T21:47:17;-1.90;99.90
15184;DHT22;7693;49.266;7.104;2024-01-11T21:49:43;-1.90;99.90
15184;DHT22;7693;49.266;7.104;2024-01-11T21:52:08;-1.90;99.90
15184;DHT22;7693;49.266;7.104;2024-01-11T21:54:35;-1.90;99.90
15184;DHT22;7693;49.266;7.104;2024-01-11T21:57:01;-1.90;99.90
15184;DHT22;7693;49.266;7.104;2024-01-11T21:59:26;-1.90;99.90
15184;DHT22;7693;49.266;7.104;2024-01-11T22:01:52;-1.80;99.90
15184;DHT22;7693;49.266;7.104;2024-01-11T22:04:18;-1.80;99.90
15184;DHT22;7693;49.266;7.104;2024-01-11T22:06:43;-1.90;99.90
15184;DHT22;7693;49.266;7.104;2024-01-11T22:09:09;-1.90;99.90
15184;DHT22;7693;49.266;7.104;2024-01-11T22:11:35;-1.90;99.90
15184;DHT22;7693;49.266;7.104;2024-01-11T22:14:01;-2.00;99.90
15184;DHT22;7693;49.266;7.104;2024-01-11T22:16:31;-2.00;99.90
15184;DHT22;7693;49.266;7.104;2024-01-11T22:18:57;-2.00;99.90
15184;DHT22;7693;49.266;7.104;2024-01-11T22:21:23;-2.10;99.90
15184;DHT22;7693;49.266;7.104;2024-01-11T22:23:50;-2.10;99.90
15184;DHT22;7693;49.266;7.104;2024-01-11T22:26:22;-2.20;99.90
15184;DHT22;7693;49.266;7.104;2024-01-11T22:28:48;-2.20;99.90
15184;DHT22;7693;49.266;7.104;2024-01-11T22:31:14;-2.10;99.90
15184;DHT22;7693;49.266;7.104;2024-01-11T22:33:40;-2.20;99.90
15184;DHT22;7693;49.266;7.104;2024-01-11T22:36:08;-2.10;99.90
15184;DHT22;7693;49.266;7.104;2024-01-11T22:38:34;-2.10;99.90
15184;DHT22;7693;49.266;7.104;2024-01-11T22:41:00;-2.10;99.90
15184;DHT22;7693;49.266;7.104;2024-01-11T22:43:26;-2.10;99.90
15184;DHT22;7693;49.266;7.104;2024-01-11T22:45:52;-2.20;99.90
15184;DHT22;7693;49.266;7.104;2024-01-11T22:48:17;-2.10;99.90
15184;DHT22;7693;49.266;7.104;2024-01-11T22:50:43;-2.10;99.90
15184;DHT22;7693;49.266;7.104;2024-01-11T22:53:09;-2.20;99.90
15184;DHT22;7693;49.266;7.104;2024-01-11T22:55:34;-2.20;99.90
15184;DHT22;7693;49.266;7.104;2024-01-11T22:58:00;-2.20;99.90
15184;DHT22;7693;49.266;7.104;2024-01-11T23:00:25;-2.20;99.90
15184;DHT22;7693;49.266;7.104;2024-01-11T23:02:52;-2.30;99.90
15184;DHT22;7693;49.266;7.104;2024-01-11T23:05:18;-2.30;99.90
15184;DHT22;7693;49.266;7.104;2024-01-11T23:07:44;-2.30;99.90
15184;DHT22;7693;49.266;7.104;2024-01-11T23:10:10;-2.30;99.90
15184;DHT22;7693;49.266;7.104;2024-01-11T23:12:43;-2.30;99.90
15184;DHT22;7693;49.266;7.104;2024-01-11T23:15:09;-2.40;99.90
15184;DHT22;7693;49.266;7.104;2024-01-11T23:17:35;-2.40;99.90
15184;DHT22;7693;49.266;7.104;2024-01-11T23:20:02;-2.40;99.90
15184;DHT22;7693;49.266;7.104;2024-01-11T23:22:30;-2.50;99.90
15184;DHT22;7693;49.266;7.104;2024-01-11T23:24:55;-2.50;99.90
15184;DHT22;7693;49.266;7.104;2024-01-11T23:27:21;-2.60;99.90
15184;DHT22;7693;49.266;7.104;2024-01-11T23:29:47;-2.60;99.90
